createdAt,value
2023-02-11T00:01:16.160Z,3.00
2023-02-11T00:03:43.455Z,3.00
2023-02-11T00:06:11.684Z,3.00
2023-02-11T00:08:39.288Z,3.10
2023-02-11T00:11:06.898Z,3.10
2023-02-11T00:13:34.088Z,3.10
2023-02-11T00:16:10.387Z,3.10
2023-02-11T00:18:38.047Z,3.20
2023-02-11T00:21:12.609Z,3.30
2023-02-11T00:23:40.084Z,3.40
2023-02-11T00:26:15.567Z,3.60
2023-02-11T00:28:44.031Z,3.80
2023-02-11T00:31:12.359Z,4.00
2023-02-11T00:33:39.956Z,4.30
2023-02-11T00:36:11.083Z,4.50
2023-02-11T00:38:38.316Z,4.60
2023-02-11T00:41:06.416Z,4.70
2023-02-11T00:43:33.604Z,4.80
2023-02-11T00:46:01.140Z,4.80
2023-02-11T00:48:28.419Z,4.90
2023-02-11T00:50:55.583Z,4.90
2023-02-11T00:53:22.844Z,4.90
2023-02-11T00:55:50.366Z,4.90
2023-02-11T00:58:17.820Z,5.00
2023-02-11T01:00:45.025Z,5.00
2023-02-11T01:03:13.613Z,5.00
2023-02-11T01:05:40.852Z,5.00
2023-02-11T01:08:09.944Z,5.10
2023-02-11T01:10:37.242Z,5.00
2023-02-11T01:13:06.411Z,5.00
2023-02-11T01:15:33.853Z,5.00
2023-02-11T01:18:01.057Z,5.00
2023-02-11T01:20:29.245Z,5.00
2023-02-11T01:22:57.252Z,5.00
2023-02-11T01:25:24.466Z,5.00
2023-02-11T01:27:51.671Z,4.90
2023-02-11T01:30:18.945Z,4.90
2023-02-11T01:32:47.859Z,4.80
2023-02-11T01:35:15.089Z,4.80
2023-02-11T01:37:42.320Z,4.80
2023-02-11T01:40:14.926Z,4.80
2023-02-11T01:42:42.614Z,4.80
2023-02-11T01:45:47.172Z,4.80
2023-02-11T01:48:29.422Z,4.80
2023-02-11T01:51:02.973Z,4.80
2023-02-11T01:53:51.415Z,4.80
2023-02-11T01:56:38.698Z,4.80
2023-02-11T01:59:22.531Z,4.80
2023-02-11T02:01:57.110Z,4.80
2023-02-11T02:04:31.205Z,4.80
2023-02-11T02:07:06.212Z,4.80
2023-02-11T02:09:45.926Z,4.80
2023-02-11T02:12:13.194Z,4.80
2023-02-11T02:14:41.338Z,4.90
2023-02-11T02:17:26.373Z,4.90
2023-02-11T02:20:30.412Z,4.90
2023-02-11T02:23:05.439Z,4.90
2023-02-11T02:26:01.551Z,4.90
2023-02-11T02:28:47.523Z,4.80
2023-02-11T02:31:37.344Z,4.80
2023-02-11T02:34:15.076Z,4.80
2023-02-11T02:37:10.242Z,4.70
2023-02-11T02:39:37.913Z,4.70
2023-02-11T02:42:05.832Z,4.70
2023-02-11T02:44:34.035Z,4.60
2023-02-11T02:47:01.298Z,4.70
2023-02-11T02:49:28.548Z,4.70
2023-02-11T02:52:16.270Z,4.70
2023-02-11T02:54:49.611Z,4.80
2023-02-11T02:57:42.497Z,4.80
2023-02-11T03:00:33.046Z,4.80
2023-02-11T03:03:27.745Z,4.80
2023-02-11T03:06:01.107Z,4.90
2023-02-11T03:09:00.026Z,4.90
2023-02-11T03:11:28.885Z,4.90
2023-02-11T03:13:57.394Z,4.90
2023-02-11T03:16:29.623Z,5.00
2023-02-11T03:19:02.114Z,5.00
2023-02-11T03:21:32.404Z,5.00
2023-02-11T03:24:08.571Z,5.10
2023-02-11T03:26:46.910Z,5.10
2023-02-11T03:29:21.960Z,5.10
2023-02-11T03:32:07.992Z,5.00
2023-02-11T03:34:49.687Z,5.00
2023-02-11T03:37:21.786Z,5.00
2023-02-11T03:39:59.309Z,5.10
2023-02-11T03:42:32.714Z,5.10
2023-02-11T03:45:12.372Z,5.20
2023-02-11T03:47:45.531Z,5.30
2023-02-11T03:50:17.223Z,5.20
2023-02-11T03:52:46.872Z,5.30
2023-02-11T03:55:17.873Z,5.20
2023-02-11T03:57:45.278Z,5.20
2023-02-11T04:00:13.190Z,5.20
2023-02-11T04:02:42.304Z,5.30
2023-02-11T04:05:14.662Z,5.30
2023-02-11T04:07:42.154Z,5.30
2023-02-11T04:10:09.502Z,5.30
2023-02-11T04:12:36.684Z,5.30
2023-02-11T04:15:04.209Z,5.30
2023-02-11T04:17:31.388Z,5.30
2023-02-11T04:19:58.611Z,5.30
2023-02-11T04:22:25.875Z,5.30
2023-02-11T04:24:53.084Z,5.30
2023-02-11T04:27:20.289Z,5.30
2023-02-11T04:29:47.550Z,5.40
2023-02-11T04:32:14.858Z,5.40
2023-02-11T04:34:42.189Z,5.50
2023-02-11T04:37:09.456Z,5.50
2023-02-11T04:39:36.781Z,5.50
2023-02-11T04:42:04.202Z,5.50
2023-02-11T04:44:31.530Z,5.50
2023-02-11T04:46:58.887Z,5.50
2023-02-11T04:49:26.150Z,5.40
2023-02-11T04:51:53.374Z,5.40
2023-02-11T04:54:20.622Z,5.40
2023-02-11T04:56:48.134Z,5.40
2023-02-11T04:59:15.514Z,5.40
2023-02-11T05:01:42.823Z,5.40
2023-02-11T05:04:10.175Z,5.40
2023-02-11T05:06:39.905Z,5.40
2023-02-11T05:09:07.111Z,5.50
2023-02-11T05:11:34.533Z,5.40
2023-02-11T05:14:01.740Z,5.40
2023-02-11T05:16:28.981Z,5.40
2023-02-11T05:18:56.545Z,5.40
2023-02-11T05:21:23.916Z,5.30
2023-02-11T05:23:51.537Z,5.20
2023-02-11T05:26:19.128Z,5.20
2023-02-11T05:28:46.497Z,5.30
2023-02-11T05:31:14.650Z,5.20
2023-02-11T05:33:42.391Z,5.10
2023-02-11T05:36:12.333Z,5.10
2023-02-11T05:39:04.866Z,5.10
2023-02-11T05:41:32.057Z,5.10
2023-02-11T05:43:59.240Z,5.20
2023-02-11T05:46:26.513Z,5.20
2023-02-11T05:48:53.779Z,5.30
2023-02-11T05:51:20.993Z,5.40
2023-02-11T05:53:48.224Z,5.40
2023-02-11T05:56:15.506Z,5.50
2023-02-11T05:58:42.754Z,5.50
2023-02-11T06:01:09.979Z,5.50
2023-02-11T06:03:37.205Z,5.50
2023-02-11T06:06:04.882Z,5.50
2023-02-11T06:08:32.070Z,5.50
2023-02-11T06:10:59.361Z,5.50
2023-02-11T06:13:26.570Z,5.50
2023-02-11T06:16:00.910Z,5.50
2023-02-11T06:18:29.451Z,5.50
2023-02-11T06:20:56.867Z,5.50
2023-02-11T06:23:29.988Z,5.50
2023-02-11T06:26:03.789Z,5.50
2023-02-11T06:28:34.636Z,5.40
2023-02-11T06:31:07.010Z,5.50
2023-02-11T06:33:35.102Z,5.50
2023-02-11T06:36:04.866Z,5.50
2023-02-11T06:38:32.106Z,5.50
2023-02-11T06:40:59.385Z,5.50
2023-02-11T06:43:26.704Z,5.50
2023-02-11T06:45:54.556Z,5.50
2023-02-11T06:48:24.265Z,5.50
2023-02-11T06:50:51.837Z,5.50
2023-02-11T06:53:19.216Z,5.50
2023-02-11T06:55:46.485Z,5.50
2023-02-11T06:58:13.930Z,5.60
2023-02-11T07:00:41.290Z,5.50
2023-02-11T07:03:08.890Z,5.60
2023-02-11T07:05:39.256Z,5.60
2023-02-11T07:08:07.937Z,5.60
2023-02-11T07:10:35.583Z,5.60
2023-02-11T07:13:02.836Z,5.60
2023-02-11T07:15:30.046Z,5.50
2023-02-11T07:17:57.241Z,5.50
2023-02-11T07:20:24.655Z,5.60
2023-02-11T07:22:52.965Z,5.70
2023-02-11T07:25:20.364Z,5.70
2023-02-11T07:27:47.590Z,5.60
2023-02-11T07:30:15.116Z,5.70
2023-02-11T07:32:42.438Z,5.80
2023-02-11T07:35:09.725Z,5.80
2023-02-11T07:37:37.023Z,5.90
2023-02-11T07:40:04.524Z,5.90
2023-02-11T07:42:31.848Z,5.90
2023-02-11T07:44:59.042Z,5.90
2023-02-11T07:47:26.313Z,5.90
2023-02-11T07:49:56.218Z,6.00
2023-02-11T07:52:23.972Z,6.00
2023-02-11T07:54:51.238Z,6.00
2023-02-11T07:57:18.499Z,6.00
2023-02-11T07:59:45.747Z,6.10
2023-02-11T08:02:13.028Z,6.10
2023-02-11T08:04:40.460Z,6.20
2023-02-11T08:07:07.800Z,6.30
2023-02-11T08:09:37.095Z,6.30
2023-02-11T08:12:04.747Z,6.30
2023-02-11T08:14:32.805Z,6.40
2023-02-11T08:17:00.008Z,6.50
2023-02-11T08:19:27.496Z,6.50
2023-02-11T08:21:58.407Z,6.50
2023-02-11T08:24:27.770Z,6.50
2023-02-11T08:26:54.977Z,6.50
2023-02-11T08:29:23.294Z,6.50
2023-02-11T08:31:50.583Z,6.50
2023-02-11T08:34:21.043Z,6.60
2023-02-11T08:36:49.185Z,6.60
2023-02-11T08:39:22.073Z,6.60
2023-02-11T08:41:52.770Z,6.70
2023-02-11T08:44:21.925Z,6.60
2023-02-11T08:46:50.065Z,6.70
2023-02-11T08:49:17.865Z,6.60
2023-02-11T08:51:46.139Z,6.60
2023-02-11T08:54:14.234Z,6.60
2023-02-11T08:56:41.890Z,6.70
2023-02-11T08:59:12.476Z,6.60
2023-02-11T09:01:39.747Z,6.70
2023-02-11T09:04:07.087Z,6.70
2023-02-11T09:06:34.525Z,6.80
2023-02-11T09:09:01.825Z,6.80
2023-02-11T09:11:31.797Z,6.70
2023-02-11T09:13:59.581Z,6.80
2023-02-11T09:16:30.805Z,6.80
2023-02-11T09:18:59.345Z,6.80
2023-02-11T09:21:27.771Z,6.80
2023-02-11T09:23:59.316Z,6.90
2023-02-11T09:26:29.215Z,6.90
2023-02-11T09:28:56.627Z,6.90
2023-02-11T09:31:26.184Z,6.80
2023-02-11T09:33:58.830Z,6.90
2023-02-11T09:36:30.116Z,6.80
2023-02-11T09:38:59.837Z,6.90
2023-02-11T09:42:01.138Z,7.00
2023-02-11T09:44:33.871Z,7.00
2023-02-11T09:47:04.965Z,7.00
2023-02-11T09:49:39.233Z,7.10
2023-02-11T09:52:44.542Z,7.10
2023-02-11T09:55:39.420Z,7.10
2023-02-11T09:58:16.233Z,7.10
2023-02-11T10:00:52.861Z,7.10
2023-02-11T10:04:02.016Z,7.10
2023-02-11T10:06:45.763Z,7.10
2023-02-11T10:09:25.016Z,7.10
2023-02-11T10:12:27.471Z,7.10
2023-02-11T10:15:26.513Z,7.20
2023-02-11T10:18:31.014Z,7.10
2023-02-11T10:21:25.444Z,7.10
2023-02-11T10:23:56.757Z,7.00
2023-02-11T10:26:26.459Z,7.10
2023-02-11T10:28:55.602Z,7.10
2023-02-11T10:31:34.057Z,7.10
2023-02-11T10:34:07.385Z,7.10
2023-02-11T10:36:37.688Z,7.10
2023-02-11T10:39:31.836Z,7.10
2023-02-11T10:42:08.818Z,7.20
2023-02-11T10:44:54.060Z,7.20
2023-02-11T10:47:24.176Z,7.10
2023-02-11T10:49:51.532Z,7.20
2023-02-11T10:52:26.945Z,7.20
2023-02-11T10:55:01.294Z,7.10
2023-02-11T10:57:36.053Z,7.20
2023-02-11T11:00:18.553Z,7.30
2023-02-11T11:02:52.120Z,7.20
2023-02-11T11:05:24.062Z,7.20
2023-02-11T11:08:06.686Z,7.30
2023-02-11T11:10:44.751Z,7.20
2023-02-11T11:13:26.814Z,7.20
2023-02-11T11:16:14.445Z,7.20
2023-02-11T11:18:47.071Z,7.30
2023-02-11T11:21:26.938Z,7.20
2023-02-11T11:23:57.454Z,7.30
2023-02-11T11:26:28.082Z,7.30
2023-02-11T11:29:02.527Z,7.30
2023-02-11T11:31:37.469Z,7.30
2023-02-11T11:34:26.821Z,7.30
2023-02-11T11:36:56.132Z,7.30
2023-02-11T11:39:27.985Z,7.30
2023-02-11T11:42:00.506Z,7.40
2023-02-11T11:44:31.616Z,7.30
2023-02-11T11:47:28.112Z,7.40
2023-02-11T11:49:55.310Z,7.30
2023-02-11T11:52:48.868Z,7.30
2023-02-11T11:55:26.938Z,7.20
2023-02-11T11:57:54.125Z,7.40
2023-02-11T12:00:34.883Z,7.40
2023-02-11T12:03:26.623Z,7.30
2023-02-11T12:06:21.630Z,7.30
2023-02-11T12:08:59.982Z,7.40
2023-02-11T12:12:08.633Z,7.40
2023-02-11T12:15:13.332Z,7.40
2023-02-11T12:18:14.128Z,7.50
2023-02-11T12:21:13.727Z,7.50
2023-02-11T12:24:02.823Z,7.60
2023-02-11T12:27:02.178Z,7.60
2023-02-11T12:30:01.898Z,7.60
2023-02-11T12:32:46.301Z,7.60
2023-02-11T12:35:27.220Z,7.70
2023-02-11T12:38:27.981Z,7.70
2023-02-11T12:41:43.952Z,7.70
2023-02-11T12:44:40.536Z,7.70
2023-02-11T12:47:38.812Z,7.80
2023-02-11T12:50:27.150Z,7.90
2023-02-11T12:53:22.226Z,8.00
2023-02-11T12:55:55.073Z,7.90
2023-02-11T12:58:35.489Z,8.00
2023-02-11T13:01:24.601Z,8.00
2023-02-11T13:04:04.565Z,8.00
2023-02-11T13:06:41.537Z,8.00
2023-02-11T13:09:21.034Z,8.10
2023-02-11T13:11:53.611Z,8.10
2023-02-11T13:14:36.767Z,8.10
2023-02-11T13:17:16.275Z,8.10
2023-02-11T13:19:52.543Z,8.10
2023-02-11T13:22:44.123Z,8.10
2023-02-11T13:25:19.200Z,8.10
2023-02-11T13:28:23.195Z,8.10
2023-02-11T13:31:01.732Z,8.10
2023-02-11T13:33:43.192Z,8.20
2023-02-11T13:36:14.593Z,8.10
2023-02-11T13:38:52.443Z,8.10
2023-02-11T13:41:24.684Z,8.10
2023-02-11T13:44:01.459Z,8.10
2023-02-11T13:46:49.754Z,8.20
2023-02-11T13:49:23.132Z,8.10
2023-02-11T13:51:52.136Z,8.20
2023-02-11T13:54:25.077Z,8.20
2023-02-11T13:57:20.608Z,8.20
2023-02-11T13:59:49.107Z,8.30
2023-02-11T14:02:54.663Z,8.30
2023-02-11T14:05:51.271Z,8.30
2023-02-11T14:08:40.539Z,8.30
2023-02-11T14:11:33.754Z,8.30
2023-02-11T14:14:23.794Z,8.30
2023-02-11T14:17:00.254Z,8.50
2023-02-11T14:19:39.348Z,8.40
2023-02-11T14:22:25.966Z,8.50
2023-02-11T14:25:00.740Z,8.50
2023-02-11T14:27:31.415Z,8.50
2023-02-11T14:30:20.112Z,8.50
2023-02-11T14:33:14.169Z,8.50
2023-02-11T14:36:02.345Z,8.50
2023-02-11T14:38:55.552Z,8.50
2023-02-11T14:41:27.027Z,8.50
2023-02-11T14:44:00.933Z,8.50
2023-02-11T14:46:32.866Z,8.50
2023-02-11T14:49:05.164Z,8.50
2023-02-11T14:51:38.397Z,8.50
2023-02-11T14:54:18.694Z,8.50
2023-02-11T14:56:47.084Z,8.50
2023-02-11T14:59:22.642Z,8.50
2023-02-11T15:01:54.364Z,8.40
2023-02-11T15:04:28.400Z,8.40
2023-02-11T15:06:59.300Z,8.40
2023-02-11T15:09:39.049Z,8.40
2023-02-11T15:12:13.544Z,8.40
2023-02-11T15:14:45.451Z,8.40
2023-02-11T15:17:17.004Z,8.30
2023-02-11T15:19:53.217Z,8.30
2023-02-11T15:22:24.299Z,8.30
2023-02-11T15:25:14.889Z,8.30
2023-02-11T15:27:51.616Z,8.20
2023-02-11T15:30:21.784Z,8.40
2023-02-11T15:32:50.804Z,8.30
2023-02-11T15:35:18.827Z,8.30
2023-02-11T15:37:50.201Z,8.30
2023-02-11T15:40:22.902Z,8.40
2023-02-11T15:42:56.743Z,8.40
2023-02-11T15:45:29.135Z,8.20
2023-02-11T15:48:20.402Z,8.20
2023-02-11T15:50:58.626Z,8.20
2023-02-11T15:53:33.862Z,8.20
2023-02-11T15:56:24.135Z,8.20
2023-02-11T15:58:56.820Z,8.20
2023-02-11T16:01:36.096Z,8.20
2023-02-11T16:04:04.916Z,8.20
2023-02-11T16:06:42.711Z,8.20
2023-02-11T16:09:12.574Z,8.20
2023-02-11T16:11:47.148Z,8.10
2023-02-11T16:14:32.492Z,8.00
2023-02-11T16:17:10.304Z,8.00
2023-02-11T16:19:45.654Z,8.00
2023-02-11T16:22:24.380Z,8.10
2023-02-11T16:24:54.019Z,8.00
2023-02-11T16:27:25.620Z,8.10
2023-02-11T16:29:53.151Z,8.10
2023-02-11T16:32:26.662Z,8.10
2023-02-11T16:34:55.432Z,8.10
2023-02-11T16:37:22.647Z,8.20
2023-02-11T16:39:53.056Z,8.10
2023-02-11T16:42:20.430Z,8.20
2023-02-11T16:44:47.638Z,8.20
2023-02-11T16:47:28.673Z,8.10
2023-02-11T16:49:56.881Z,8.10
2023-02-11T16:52:25.143Z,8.00
2023-02-11T16:54:59.648Z,8.10
2023-02-11T16:57:29.896Z,8.10
2023-02-11T16:59:58.972Z,8.00
2023-02-11T17:02:30.664Z,8.00
2023-02-11T17:05:01.499Z,8.00
2023-02-11T17:07:29.336Z,8.00
2023-02-11T17:09:56.918Z,8.00
2023-02-11T17:12:27.024Z,8.00
2023-02-11T17:14:54.432Z,8.00
2023-02-11T17:17:23.673Z,8.00
2023-02-11T17:19:51.259Z,7.90
2023-02-11T17:22:22.645Z,7.90
2023-02-11T17:24:49.937Z,7.90
2023-02-11T17:27:17.392Z,7.90
2023-02-11T17:29:44.570Z,7.90
2023-02-11T17:32:11.910Z,8.00
2023-02-11T17:34:39.170Z,8.00
2023-02-11T17:37:09.344Z,8.00
2023-02-11T17:39:37.844Z,8.00
2023-02-11T17:42:06.399Z,7.90
2023-02-11T17:44:34.103Z,7.90
2023-02-11T17:47:01.359Z,7.90
2023-02-11T17:49:31.876Z,8.00
2023-02-11T17:52:00.115Z,7.90
2023-02-11T17:54:28.405Z,7.90
2023-02-11T17:56:58.191Z,7.80
2023-02-11T17:59:26.443Z,7.90
2023-02-11T18:01:53.661Z,7.90
2023-02-11T18:04:20.984Z,7.90
2023-02-11T18:06:48.467Z,7.80
2023-02-11T18:09:20.029Z,7.80
2023-02-11T18:11:48.430Z,7.80
2023-02-11T18:14:15.804Z,7.80
2023-02-11T18:16:44.777Z,7.80
2023-02-11T18:19:13.197Z,7.80
2023-02-11T18:21:51.703Z,7.80
2023-02-11T18:24:18.937Z,7.70
2023-02-11T18:26:46.119Z,7.70
2023-02-11T18:29:13.384Z,7.70
2023-02-11T18:31:46.963Z,7.70
2023-02-11T18:34:14.324Z,7.70
2023-02-11T18:36:41.600Z,7.70
2023-02-11T18:39:08.938Z,7.70
2023-02-11T18:41:42.216Z,7.70
2023-02-11T18:44:11.196Z,7.80
2023-02-11T18:46:38.380Z,7.80
2023-02-11T18:49:13.073Z,7.80
2023-02-11T18:51:47.680Z,7.80
2023-02-11T18:54:20.664Z,7.80
2023-02-11T18:56:48.871Z,7.70
2023-02-11T18:59:45.494Z,7.70
2023-02-11T19:02:12.777Z,7.80
2023-02-11T19:04:40.048Z,7.70
2023-02-11T19:07:10.698Z,7.60
2023-02-11T19:09:38.021Z,7.60
2023-02-11T19:12:07.051Z,7.60
2023-02-11T19:14:34.793Z,7.60
2023-02-11T19:17:06.971Z,7.70
2023-02-11T19:19:36.528Z,7.70
2023-02-11T19:22:10.572Z,7.60
2023-02-11T19:24:38.704Z,7.70
2023-02-11T19:27:06.080Z,7.60
2023-02-11T19:29:35.027Z,7.60
2023-02-11T19:32:08.366Z,7.70
2023-02-11T19:34:41.179Z,7.70
2023-02-11T19:37:13.051Z,7.70
2023-02-11T19:39:41.306Z,7.70
2023-02-11T19:42:08.819Z,7.70
2023-02-11T19:44:38.590Z,7.70
2023-02-11T19:47:21.394Z,7.80
2023-02-11T19:49:48.597Z,8.00
2023-02-11T19:52:15.840Z,8.00
2023-02-11T19:54:44.070Z,7.90
2023-02-11T19:57:11.281Z,7.90
2023-02-11T19:59:38.557Z,7.90
2023-02-11T20:02:05.764Z,8.00
2023-02-11T20:04:33.256Z,8.00
2023-02-11T20:07:00.610Z,7.90
2023-02-11T20:09:29.022Z,7.80
2023-02-11T20:11:58.079Z,7.80
2023-02-11T20:14:27.865Z,7.90
2023-02-11T20:16:55.263Z,8.00
2023-02-11T20:19:22.970Z,8.00
2023-02-11T20:21:53.281Z,7.90
2023-02-11T20:24:21.123Z,7.90
2023-02-11T20:26:55.159Z,8.00
2023-02-11T20:29:26.038Z,8.00
2023-02-11T20:31:54.035Z,8.00
2023-02-11T20:34:25.723Z,7.90
2023-02-11T20:36:58.364Z,7.90
2023-02-11T20:39:26.930Z,8.00
2023-02-11T20:41:54.438Z,7.90
2023-02-11T20:44:27.050Z,7.80
2023-02-11T20:46:54.690Z,7.90
2023-02-11T20:49:26.872Z,7.90
2023-02-11T20:51:55.454Z,7.90
2023-02-11T20:54:24.384Z,7.90
2023-02-11T20:56:53.836Z,7.90
2023-02-11T20:59:22.820Z,7.90
2023-02-11T21:01:55.583Z,7.90
2023-02-11T21:04:26.730Z,8.00
2023-02-11T21:06:57.251Z,8.00
2023-02-11T21:09:27.507Z,7.90
2023-02-11T21:11:57.167Z,7.90
2023-02-11T21:14:25.875Z,7.90
2023-02-11T21:16:55.605Z,7.80
2023-02-11T21:19:22.986Z,7.90
2023-02-11T21:21:55.226Z,7.90
2023-02-11T21:24:23.672Z,7.90
2023-02-11T21:26:50.909Z,7.90
2023-02-11T21:29:18.126Z,8.00
2023-02-11T21:31:45.471Z,8.00
2023-02-11T21:34:12.862Z,8.00
2023-02-11T21:36:41.113Z,8.00
2023-02-11T21:39:08.979Z,8.00
2023-02-11T21:41:36.268Z,7.90
2023-02-11T21:44:04.281Z,8.00
2023-02-11T21:46:31.931Z,8.10
2023-02-11T21:49:00.355Z,8.00
2023-02-11T21:51:27.889Z,8.10
2023-02-11T21:54:01.329Z,8.10
2023-02-11T21:56:30.544Z,8.20
2023-02-11T21:58:59.033Z,8.20
2023-02-11T22:01:29.774Z,8.30
2023-02-11T22:03:58.539Z,8.20
2023-02-11T22:06:33.878Z,8.20
2023-02-11T22:09:06.490Z,8.20
2023-02-11T22:11:33.900Z,8.10
2023-02-11T22:14:01.219Z,8.00
2023-02-11T22:16:28.893Z,8.10
2023-02-11T22:18:58.310Z,8.10
2023-02-11T22:21:27.125Z,8.30
2023-02-11T22:23:55.421Z,8.30
2023-02-11T22:26:24.953Z,8.30
2023-02-11T22:28:53.563Z,8.20
2023-02-11T22:31:32.618Z,8.30
2023-02-11T22:34:00.865Z,8.40
2023-02-11T22:36:31.873Z,8.30
2023-02-11T22:39:11.509Z,8.30
2023-02-11T22:41:44.547Z,8.40
2023-02-11T22:44:12.619Z,8.30
2023-02-11T22:46:39.861Z,8.30
2023-02-11T22:49:07.469Z,8.30
2023-02-11T22:51:34.707Z,8.40
2023-02-11T22:54:04.377Z,8.30
2023-02-11T22:56:33.214Z,8.40
2023-02-11T22:59:03.200Z,8.50
2023-02-11T23:01:31.348Z,8.40
2023-02-11T23:04:04.011Z,8.50
2023-02-11T23:06:31.777Z,8.50
2023-02-11T23:09:04.839Z,8.60
2023-02-11T23:11:32.814Z,8.40
2023-02-11T23:14:01.694Z,8.20
2023-02-11T23:16:33.955Z,8.20
2023-02-11T23:19:06.644Z,8.30
2023-02-11T23:21:36.773Z,8.20
2023-02-11T23:24:11.449Z,8.20
2023-02-11T23:26:41.207Z,8.20
2023-02-11T23:29:09.336Z,8.10
2023-02-11T23:31:40.332Z,8.10
2023-02-11T23:34:08.716Z,8.00
2023-02-11T23:36:36.356Z,8.10
2023-02-11T23:39:03.990Z,8.00
2023-02-11T23:41:32.258Z,8.10
2023-02-11T23:43:59.602Z,8.10
2023-02-11T23:46:28.046Z,8.10
2023-02-11T23:48:55.941Z,8.00
2023-02-11T23:51:24.170Z,8.00
2023-02-11T23:53:52.663Z,8.10
2023-02-11T23:56:26.202Z,8.20
2023-02-11T23:58:56.189Z,8.30
